Impacts METAR Board
IDs:

KBWI - Baltimore-Washington, MD, US

Updated at: 0800 UTC 11 Dec 2018
Potential Impact None Slight Moderate High
Time 10/20Z 10/21Z 10/22Z 10/23Z 11/00Z 11/01Z 11/02Z 11/03Z 11/04Z 11/05Z 11/06Z 11/07Z 11/08Z
Temp38 37 34 34 30 27 29 27 28 27 26 24 22
Dewpt23 23 23 23 22 22 23 22 22 21 21 21 20
Altim30.12 30.13 30.14 30.15 30.17 30.18 30.19 30.19 30.19 30.19 30.18 30.19 30.19
VIS10 10 10 10 10 10 10 10 10 10 10 9 8
CIG250 250 250 250 -- 250 -- -- -- -- -- -- --
CoverBKNBKNBKNBKNSCTBKNSCTFEWFEWFEWFEWFEWFEW
FltCatVFRVFRVFRVFRVFRVFRVFRVFRVFRVFRVFRVFRVFR
WX--------------------------
WDir3303503603403100280300310300000
WSpd9 6 6 3 3 3 3 3 6 4 0 0 0
WGst-- -- -- -- -- -- -- -- -- -- -- -- --
Raw hourly METARs
KBWI 101954Z 33009KT 10SM SCT180 BKN250 03/M05 A3012 RMK AO2 SLP201 T00331050
KBWI 102054Z 35006KT 10SM FEW050 FEW180 BKN250 03/M05 A3013 RMK AO2 SLP204 T00281050 55001
KBWI 102154Z 36006KT 10SM FEW050 BKN250 01/M05 A3014 RMK AO2 SLP208 T00111050
KBWI 102254Z 34003KT 10SM BKN250 01/M05 A3015 RMK AO2 SLP211 T00111050
KBWI 102354Z 31003KT 10SM SCT250 M01/M06 A3017 RMK AO2 SLP217 T10111056 10039 21022 53013
KBWI 110054Z VRB03KT 10SM BKN250 M03/M06 A3018 RMK AO2 SLP222 T10281056
KBWI 110154Z 28003KT 10SM SCT250 M02/M05 A3019 RMK AO2 SLP223 T10171050
KBWI 110254Z 30003KT 10SM FEW250 M03/M06 A3019 RMK AO2 SLP224 T10281056 51006
KBWI 110354Z 31006KT 10SM FEW250 M02/M06 A3019 RMK AO2 SLP223 T10221056
KBWI 110454Z 30004KT 10SM FEW250 M03/M06 A3019 RMK AO2 SLP225 T10281061 400391039
KBWI 110554Z 00000KT 10SM FEW250 M03/M06 A3018 RMK AO2 SLP221 T10331061 11006 21039 58002
KBWI 110654Z 00000KT 9SM FEW250 M04/M06 A3019 RMK AO2 SLP224 T10441061
KBWI 110754Z 00000KT 8SM FEW250 M06/M07 A3019 RMK AO2 SLP225 T10561067



Page loaded:  08:14 UTC  |   12:14 AM Pacific  |   01:14 AM Mountain  |   02:14 AM Central  |   03:14 AM Eastern

 

ADVISORIES

FORECASTS

FORECASTS

OBSERVATIONS

USER TOOLS

ABOUT US